createdAt,value
2022-10-21T00:01:41.554Z,100090.16
2022-10-21T00:04:44.623Z,100085.60
2022-10-21T00:07:46.383Z,100090.96
2022-10-21T00:10:54.325Z,100095.25
2022-10-21T00:13:56.180Z,100087.98
2022-10-21T00:16:58.921Z,100089.42
2022-10-21T00:20:00.705Z,100083.08
2022-10-21T00:23:02.448Z,100081.20
2022-10-21T00:26:05.039Z,100084.61
2022-10-21T00:29:06.887Z,100086.98
2022-10-21T00:32:08.657Z,100081.26
2022-10-21T00:35:10.407Z,100077.98
2022-10-21T00:38:12.182Z,100074.31
2022-10-21T00:41:14.629Z,100070.23
2022-10-21T00:44:16.324Z,100072.52
2022-10-21T00:47:20.141Z,100071.86
2022-10-21T00:50:34.590Z,100072.70
2022-10-21T00:53:41.252Z,100070.42
2022-10-21T00:56:44.824Z,100064.98
2022-10-21T00:59:51.295Z,100049.94
2022-10-21T01:02:54.088Z,100044.58
2022-10-21T01:05:58.350Z,100045.27
2022-10-21T01:09:01.324Z,100036.84
2022-10-21T01:12:03.767Z,100036.55
2022-10-21T01:15:12.381Z,100036.70
2022-10-21T01:18:18.852Z,100031.05
2022-10-21T01:21:38.858Z,100026.82
2022-10-21T01:24:59.057Z,100014.36
2022-10-21T01:28:10.328Z,99998.03
2022-10-21T01:31:33.095Z,99990.89
2022-10-21T01:34:38.283Z,99988.77
2022-10-21T01:37:43.013Z,99994.29
2022-10-21T01:41:07.157Z,99994.29
2022-10-21T01:44:27.695Z,99985.67
2022-10-21T01:47:43.719Z,99999.21
2022-10-21T01:50:49.279Z,99998.67
2022-10-21T01:53:55.910Z,99998.67
2022-10-21T01:56:59.736Z,100001.46
2022-10-21T02:00:01.988Z,99999.87
2022-10-21T02:03:08.051Z,100008.19
2022-10-21T02:06:10.267Z,100010.23
2022-10-21T02:09:12.114Z,99993.84
2022-10-21T02:12:15.288Z,99988.77
2022-10-21T02:15:18.188Z,99990.88
2022-10-21T02:18:24.281Z,99996.25
2022-10-21T02:21:34.045Z,99994.20
2022-10-21T02:24:55.972Z,99998.11
2022-10-21T02:27:57.839Z,100002.67
2022-10-21T02:30:59.453Z,99995.06
2022-10-21T02:34:15.017Z,99999.76
2022-10-21T02:37:55.441Z,100008.80
2022-10-21T02:41:07.151Z,100004.40
2022-10-21T02:44:09.004Z,100001.70
2022-10-21T02:50:17.684Z,99989.83
2022-10-21T02:53:19.718Z,99982.32
2022-10-21T02:56:21.610Z,99976.58
2022-10-21T02:59:23.450Z,99969.19
2022-10-21T03:02:25.307Z,99973.10
2022-10-21T03:05:27.500Z,99968.20
2022-10-21T03:08:29.368Z,99967.46
2022-10-21T03:11:31.059Z,99961.12
2022-10-21T03:14:33.035Z,99959.83
2022-10-21T03:17:34.886Z,99946.38
2022-10-21T03:20:36.806Z,99936.70
2022-10-21T03:23:38.545Z,99932.92
2022-10-21T03:26:40.439Z,99929.56
2022-10-21T03:29:42.151Z,99938.83
2022-10-21T03:32:43.962Z,99939.20
2022-10-21T03:35:45.790Z,99942.81
2022-10-21T03:38:47.661Z,99933.47
2022-10-21T03:41:49.735Z,99923.59
2022-10-21T03:44:53.687Z,99931.81
2022-10-21T03:47:55.964Z,99940.03
2022-10-21T03:50:57.722Z,99940.65
2022-10-21T03:53:59.355Z,99941.40
2022-10-21T03:57:01.175Z,99927.91
2022-10-21T04:00:03.808Z,99926.33
2022-10-21T04:03:05.843Z,99923.84
2022-10-21T04:06:07.655Z,99923.27
2022-10-21T04:09:09.367Z,99926.45
2022-10-21T04:12:12.375Z,99912.17
2022-10-21T04:15:14.892Z,99906.28
2022-10-21T04:18:16.799Z,99905.88
2022-10-21T04:21:18.637Z,99908.69
2022-10-21T04:24:20.407Z,99901.55
2022-10-21T04:27:22.163Z,99901.44
2022-10-21T04:30:23.858Z,99894.73
2022-10-21T04:33:25.661Z,99889.12
2022-10-21T04:36:27.547Z,99884.88
2022-10-21T04:39:29.193Z,99874.17
2022-10-21T04:42:30.870Z,99866.46
2022-10-21T04:45:32.697Z,99860.28
2022-10-21T04:48:34.370Z,99862.30
2022-10-21T04:51:36.209Z,99862.98
2022-10-21T04:54:37.872Z,99864.05
2022-10-21T04:57:40.484Z,99858.29
2022-10-21T05:00:42.143Z,99854.60
2022-10-21T05:03:44.050Z,99859.12
2022-10-21T05:06:45.986Z,99865.25
2022-10-21T05:09:47.577Z,99857.73
2022-10-21T05:12:49.761Z,99859.71
2022-10-21T05:15:51.439Z,99865.45
2022-10-21T05:18:53.205Z,99866.21
2022-10-21T05:21:55.329Z,99867.27
2022-10-21T05:24:57.088Z,99863.23
2022-10-21T05:27:58.773Z,99866.50
2022-10-21T05:31:00.748Z,99865.59
2022-10-21T05:34:02.740Z,99865.10
2022-10-21T05:37:04.520Z,99859.70
2022-10-21T05:40:06.742Z,99860.56
2022-10-21T05:43:08.532Z,99867.45
2022-10-21T05:46:10.511Z,99877.33
2022-10-21T05:49:13.194Z,99880.64
2022-10-21T05:52:15.122Z,99879.42
2022-10-21T05:55:17.077Z,99884.71
2022-10-21T05:58:18.775Z,99891.95
2022-10-21T06:01:20.854Z,99887.79
2022-10-21T06:04:22.611Z,99887.88
2022-10-21T06:07:24.665Z,99889.16
2022-10-21T06:10:28.367Z,99887.62
2022-10-21T06:13:32.118Z,99894.51
2022-10-21T06:16:36.926Z,99894.73
2022-10-21T06:19:38.793Z,99888.12
2022-10-21T06:22:40.568Z,99885.27
2022-10-21T06:25:43.810Z,99881.60
2022-10-21T06:28:45.688Z,99874.58
2022-10-21T06:31:47.459Z,99873.37
2022-10-21T06:34:49.377Z,99860.65
2022-10-21T06:37:51.114Z,99847.91
2022-10-21T06:40:53.177Z,99852.41
2022-10-21T06:43:54.865Z,99859.45
2022-10-21T06:46:56.594Z,99871.37
2022-10-21T06:50:03.186Z,99883.93
2022-10-21T06:53:05.159Z,99902.12
2022-10-21T06:56:14.255Z,99917.80
2022-10-21T06:59:16.018Z,99910.08
2022-10-21T07:02:17.835Z,99908.43
2022-10-21T07:05:19.497Z,99902.48
2022-10-21T07:08:22.515Z,99898.96
2022-10-21T07:11:36.767Z,99900.84
2022-10-21T07:14:38.558Z,99904.48
2022-10-21T07:17:40.469Z,99897.47
2022-10-21T07:20:42.731Z,99904.73
2022-10-21T07:23:46.185Z,99907.13
2022-10-21T07:26:48.740Z,99910.54
2022-10-21T07:29:50.466Z,99907.27
2022-10-21T07:32:52.326Z,99900.09
2022-10-21T07:36:13.182Z,99896.41
2022-10-21T07:39:17.170Z,99896.79
2022-10-21T07:42:18.934Z,99892.71
2022-10-21T07:45:20.610Z,99887.27
2022-10-21T07:48:23.671Z,99883.48
2022-10-21T07:51:28.566Z,99881.56
2022-10-21T07:54:32.340Z,99882.61
2022-10-21T07:57:34.186Z,99876.30
2022-10-21T08:00:36.537Z,99868.80
2022-10-21T08:03:39.091Z,99859.88
2022-10-21T08:06:41.641Z,99853.52
2022-10-21T08:09:43.399Z,99847.59
2022-10-21T08:12:45.188Z,99850.01
2022-10-21T08:15:50.479Z,99851.77
2022-10-21T08:18:52.874Z,99851.41
2022-10-21T08:21:56.872Z,99849.04
2022-10-21T08:24:58.683Z,99844.54
2022-10-21T08:28:00.384Z,99830.60
2022-10-21T08:31:07.715Z,99810.46
2022-10-21T08:34:09.937Z,99804.43
2022-10-21T08:37:11.875Z,99807.33
2022-10-21T08:40:14.200Z,99810.86
2022-10-21T08:43:27.597Z,99811.47
2022-10-21T08:46:34.168Z,99808.50
2022-10-21T08:49:54.114Z,99791.52
2022-10-21T08:53:01.372Z,99789.83
2022-10-21T08:56:11.949Z,99784.74
2022-10-21T08:59:22.296Z,99775.80
2022-10-21T09:02:39.820Z,99778.23
2022-10-21T09:05:59.993Z,99774.52
2022-10-21T09:09:09.059Z,99762.38
2022-10-21T09:12:17.014Z,99756.77
2022-10-21T09:15:54.091Z,99754.16
2022-10-21T09:19:32.224Z,99768.09
2022-10-21T09:22:45.380Z,99760.09
2022-10-21T09:26:00.758Z,99748.27
2022-10-21T09:29:30.180Z,99742.16
2022-10-21T09:32:35.051Z,99747.60
2022-10-21T09:35:41.533Z,99742.73
2022-10-21T09:38:55.237Z,99740.26
2022-10-21T09:42:00.183Z,99735.38
2022-10-21T09:45:07.013Z,99728.50
2022-10-21T09:48:18.207Z,99726.55
2022-10-21T09:51:25.085Z,99724.67
2022-10-21T09:54:30.331Z,99721.84
2022-10-21T09:57:32.097Z,99711.73
2022-10-21T10:00:44.523Z,99710.02
2022-10-21T10:03:48.577Z,99707.83
2022-10-21T10:06:50.715Z,99704.03
2022-10-21T10:09:52.475Z,99698.77
2022-10-21T10:12:59.160Z,99696.97
2022-10-21T10:16:22.920Z,99696.75
2022-10-21T10:19:27.632Z,99684.45
2022-10-21T10:22:35.920Z,99688.73
2022-10-21T10:25:39.225Z,99678.32
2022-10-21T10:31:50.969Z,99670.48
2022-10-21T10:34:56.392Z,99649.86
2022-10-21T10:38:00.002Z,99638.72
2022-10-21T10:41:08.788Z,99633.39
2022-10-21T10:44:31.196Z,99623.38
2022-10-21T10:47:41.831Z,99614.17
2022-10-21T10:50:45.015Z,99606.41
2022-10-21T10:53:59.739Z,99602.48
2022-10-21T10:57:05.433Z,99603.44
2022-10-21T11:00:17.478Z,99598.53
2022-10-21T11:03:26.470Z,99594.34
2022-10-21T11:06:39.070Z,99588.95
2022-10-21T11:09:40.915Z,99583.19
2022-10-21T11:12:42.985Z,99578.40
2022-10-21T11:16:00.019Z,99571.77
2022-10-21T11:19:19.232Z,99564.81
2022-10-21T11:22:24.889Z,99548.30
2022-10-21T11:25:38.363Z,99541.05
2022-10-21T11:28:50.549Z,99538.73
2022-10-21T11:32:11.678Z,99529.48
2022-10-21T11:35:32.512Z,99523.11
2022-10-21T11:39:21.242Z,99521.75
2022-10-21T11:42:31.942Z,99510.70
2022-10-21T11:45:33.659Z,99508.40
2022-10-21T11:48:54.539Z,99504.02
2022-10-21T11:52:02.441Z,99494.82
2022-10-21T11:55:32.421Z,99482.59
2022-10-21T11:58:37.304Z,99478.30
2022-10-21T12:01:46.980Z,99481.99
2022-10-21T12:05:17.131Z,99471.30
2022-10-21T12:08:28.659Z,99466.30
2022-10-21T12:11:39.776Z,99465.39
2022-10-21T12:14:50.324Z,99453.12
2022-10-21T12:17:52.716Z,99452.11
2022-10-21T12:20:56.269Z,99454.45
2022-10-21T12:24:22.674Z,99453.94
2022-10-21T12:27:42.496Z,99450.73
2022-10-21T12:30:55.352Z,99447.06
2022-10-21T12:33:57.399Z,99432.61
2022-10-21T12:36:59.232Z,99420.06
2022-10-21T12:40:26.278Z,99414.27
2022-10-21T12:43:28.982Z,99410.85
2022-10-21T12:46:40.101Z,99409.03
2022-10-21T12:49:43.706Z,99411.27
2022-10-21T12:52:46.561Z,99398.48
2022-10-21T12:55:56.130Z,99402.55
2022-10-21T12:59:01.854Z,99395.73
2022-10-21T13:02:06.842Z,99394.07
2022-10-21T13:05:08.823Z,99393.60
2022-10-21T13:08:22.990Z,99391.19
2022-10-21T13:11:39.051Z,99391.02
2022-10-21T13:14:52.607Z,99389.87
2022-10-21T13:17:56.043Z,99389.70
2022-10-21T13:20:59.870Z,99386.80
2022-10-21T13:24:20.315Z,99394.70
2022-10-21T13:31:00.658Z,99403.08
2022-10-21T13:34:02.967Z,99400.26
2022-10-21T13:37:13.171Z,99397.86
2022-10-21T13:40:17.834Z,99399.81
2022-10-21T13:43:29.005Z,99397.34
2022-10-21T13:46:43.642Z,99393.72
2022-10-21T13:49:54.292Z,99384.95
2022-10-21T13:52:56.146Z,99376.42
2022-10-21T13:56:04.656Z,99375.77
2022-10-21T13:59:18.424Z,99377.34
2022-10-21T14:02:25.150Z,99366.63
2022-10-21T14:05:39.713Z,99357.47
2022-10-21T14:08:42.829Z,99352.48
2022-10-21T14:11:48.823Z,99355.71
2022-10-21T14:14:51.779Z,99354.75
2022-10-21T14:17:58.604Z,99357.83
2022-10-21T14:21:01.168Z,99363.96
2022-10-21T14:24:03.727Z,99362.52
2022-10-21T14:27:06.028Z,99358.16
2022-10-21T14:30:10.329Z,99361.65
2022-10-21T14:33:17.204Z,99359.25
2022-10-21T14:36:23.425Z,99353.13
2022-10-21T14:39:25.290Z,99351.73
2022-10-21T14:42:27.068Z,99359.89
2022-10-21T14:45:32.796Z,99364.25
2022-10-21T14:48:38.169Z,99363.55
2022-10-21T14:51:39.985Z,99359.38
2022-10-21T14:54:47.966Z,99353.17
2022-10-21T14:57:54.232Z,99348.48
2022-10-21T15:00:58.711Z,99346.85
2022-10-21T15:04:01.624Z,99347.52
2022-10-21T15:07:03.305Z,99355.70
2022-10-21T15:10:05.568Z,99359.86
2022-10-21T15:13:20.086Z,99358.06
2022-10-21T15:16:25.610Z,99359.20
2022-10-21T15:19:32.940Z,99356.55
2022-10-21T15:22:38.047Z,99346.05
2022-10-21T15:25:39.784Z,99352.77
2022-10-21T15:28:42.375Z,99355.52
2022-10-21T15:31:44.379Z,99356.35
2022-10-21T15:34:50.337Z,99362.76
2022-10-21T15:37:53.421Z,99363.84
2022-10-21T15:40:55.164Z,99364.86
2022-10-21T15:43:56.997Z,99363.68
2022-10-21T15:47:02.950Z,99365.92
2022-10-21T15:50:13.961Z,99365.59
2022-10-21T15:53:15.777Z,99367.91
2022-10-21T15:56:19.537Z,99369.52
2022-10-21T15:59:30.300Z,99368.77
2022-10-21T16:02:32.035Z,99373.73
2022-10-21T16:05:33.921Z,99384.80
2022-10-21T16:08:35.665Z,99379.40
2022-10-21T16:11:41.477Z,99380.14
2022-10-21T16:14:49.895Z,99382.37
2022-10-21T16:17:56.016Z,99389.91
2022-10-21T16:20:58.741Z,99395.35
2022-10-21T16:24:00.791Z,99403.33
2022-10-21T16:27:02.511Z,99414.66
2022-10-21T16:30:18.257Z,99421.22
2022-10-21T16:33:20.049Z,99432.33
2022-10-21T16:36:25.725Z,99435.68
2022-10-21T16:39:27.538Z,99437.48
2022-10-21T16:42:29.294Z,99436.64
2022-10-21T16:45:32.083Z,99436.12
2022-10-21T16:48:33.904Z,99434.91
2022-10-21T16:51:37.404Z,99432.59
2022-10-21T16:54:39.358Z,99434.74
2022-10-21T16:57:41.568Z,99433.46
2022-10-21T17:00:45.115Z,99431.29
2022-10-21T17:03:47.080Z,99434.43
2022-10-21T17:06:48.879Z,99428.09
2022-10-21T17:09:50.652Z,99423.64
2022-10-21T17:12:59.151Z,99429.66
2022-10-21T17:16:00.970Z,99437.52
2022-10-21T17:19:02.756Z,99442.77
2022-10-21T17:22:04.481Z,99447.51
2022-10-21T17:25:06.511Z,99451.77
2022-10-21T17:28:09.075Z,99452.54
2022-10-21T17:31:19.306Z,99454.59
2022-10-21T17:34:26.661Z,99448.88
2022-10-21T17:37:28.427Z,99440.29
2022-10-21T17:40:30.343Z,99436.65
2022-10-21T17:43:32.223Z,99440.36
2022-10-21T17:46:34.293Z,99443.32
2022-10-21T17:49:36.030Z,99440.14
2022-10-21T17:52:38.738Z,99441.61
2022-10-21T17:55:40.733Z,99441.60
2022-10-21T17:58:42.399Z,99445.36
2022-10-21T18:01:44.231Z,99442.11
2022-10-21T18:04:46.628Z,99444.19
2022-10-21T18:07:48.587Z,99449.07
2022-10-21T18:10:55.655Z,99449.99
2022-10-21T18:13:57.504Z,99448.29
2022-10-21T18:16:59.312Z,99442.23
2022-10-21T18:20:01.098Z,99437.73
2022-10-21T18:23:02.899Z,99437.90
2022-10-21T18:26:06.327Z,99432.71
2022-10-21T18:29:08.044Z,99428.31
2022-10-21T18:32:13.749Z,99426.73
2022-10-21T18:35:16.738Z,99424.70
2022-10-21T18:38:18.427Z,99420.35
2022-10-21T18:41:21.493Z,99413.91
2022-10-21T18:44:23.864Z,99410.10
2022-10-21T18:47:28.191Z,99408.14
2022-10-21T18:50:30.247Z,99413.11
2022-10-21T18:53:33.994Z,99412.70
2022-10-21T18:56:36.010Z,99407.02
2022-10-21T18:59:37.784Z,99407.36
2022-10-21T19:02:40.784Z,99411.20
2022-10-21T19:05:43.566Z,99414.14
2022-10-21T19:08:46.436Z,99413.09
2022-10-21T19:11:49.081Z,99410.15
2022-10-21T19:14:50.970Z,99405.33
2022-10-21T19:17:52.722Z,99405.79
2022-10-21T19:20:54.636Z,99404.20
2022-10-21T19:23:56.846Z,99409.58
2022-10-21T19:26:59.198Z,99412.48
2022-10-21T19:30:01.045Z,99409.09
2022-10-21T19:33:04.340Z,99402.55
2022-10-21T19:36:06.732Z,99405.08
2022-10-21T19:39:08.817Z,99409.27
2022-10-21T19:42:10.795Z,99410.23
2022-10-21T19:45:17.312Z,99410.15
2022-10-21T19:48:20.394Z,99405.08
2022-10-21T19:51:23.980Z,99405.55
2022-10-21T19:54:25.756Z,99406.15
2022-10-21T19:57:27.622Z,99401.55
2022-10-21T20:00:29.503Z,99398.85
2022-10-21T20:03:31.615Z,99392.89
2022-10-21T20:06:35.785Z,99389.20
2022-10-21T20:09:38.892Z,99384.63
2022-10-21T20:12:41.520Z,99376.64
2022-10-21T20:15:47.277Z,99376.50
2022-10-21T20:18:49.564Z,99374.60
2022-10-21T20:21:51.620Z,99372.23
2022-10-21T20:24:53.524Z,99364.52
2022-10-21T20:27:55.268Z,99354.50
2022-10-21T20:31:01.773Z,99347.38
2022-10-21T20:34:03.684Z,99343.36
2022-10-21T20:37:05.847Z,99338.06
2022-10-21T20:40:08.052Z,99329.95
2022-10-21T20:43:09.800Z,99317.48
2022-10-21T20:46:13.373Z,99315.11
2022-10-21T20:49:15.107Z,99314.73
2022-10-21T20:52:16.828Z,99306.58
2022-10-21T20:55:18.871Z,99295.36
2022-10-21T20:58:20.898Z,99292.84
2022-10-21T21:01:25.581Z,99293.35
2022-10-21T21:04:27.567Z,99285.65
2022-10-21T21:07:29.290Z,99282.98
2022-10-21T21:10:31.344Z,99291.20
2022-10-21T21:13:33.878Z,99295.68
2022-10-21T21:16:35.743Z,99305.95
2022-10-21T21:19:39.463Z,99314.70
2022-10-21T21:22:41.707Z,99315.38
2022-10-21T21:25:43.971Z,99305.59
2022-10-21T21:28:46.327Z,99312.47
2022-10-21T21:31:48.202Z,99309.29
2022-10-21T21:34:55.034Z,99295.30
2022-10-21T21:37:56.986Z,99306.67
2022-10-21T21:40:58.892Z,99307.94
2022-10-21T21:44:00.806Z,99308.50
2022-10-21T21:47:03.534Z,99307.38
2022-10-21T21:50:05.710Z,99303.42
2022-10-21T21:53:09.998Z,99301.09
2022-10-21T21:56:12.139Z,99298.05
2022-10-21T21:59:13.969Z,99297.27
2022-10-21T22:02:15.659Z,99298.60
2022-10-21T22:05:17.579Z,99294.48
2022-10-21T22:08:19.315Z,99283.09
2022-10-21T22:11:25.129Z,99279.70
2022-10-21T22:14:27.191Z,99281.41
2022-10-21T22:17:29.018Z,99277.34
2022-10-21T22:20:31.107Z,99276.31
2022-10-21T22:23:32.963Z,99277.88
2022-10-21T22:26:35.139Z,99282.80
2022-10-21T22:29:36.959Z,99287.33
2022-10-21T22:32:38.971Z,99287.09
2022-10-21T22:35:40.678Z,99287.34
2022-10-21T22:38:42.835Z,99298.83
2022-10-21T22:41:44.634Z,99303.14
2022-10-21T22:44:46.661Z,99310.73
2022-10-21T22:47:48.337Z,99316.84
2022-10-21T22:50:50.135Z,99317.48
2022-10-21T22:53:55.390Z,99320.11
2022-10-21T22:56:59.131Z,99322.52
2022-10-21T23:00:00.973Z,99312.91
2022-10-21T23:03:06.131Z,99307.45
2022-10-21T23:06:31.945Z,99305.06
2022-10-21T23:09:47.803Z,99307.98
2022-10-21T23:13:06.441Z,99317.23
2022-10-21T23:16:08.402Z,99317.70
2022-10-21T23:19:13.381Z,99327.86
2022-10-21T23:22:15.262Z,99332.23
2022-10-21T23:25:17.452Z,99328.54
2022-10-21T23:31:25.988Z,99332.71
2022-10-21T23:34:27.933Z,99337.23
2022-10-21T23:37:29.719Z,99328.75
2022-10-21T23:40:31.336Z,99322.45
2022-10-21T23:43:33.094Z,99322.23
2022-10-21T23:46:34.812Z,99321.54
2022-10-21T23:49:36.664Z,99314.06
2022-10-21T23:52:38.876Z,99313.55
2022-10-21T23:55:40.558Z,99318.80
2022-10-21T23:58:42.243Z,99327.14
